Time;durP1;ratioP1;P1;durP2;ratioP2;P2;SDS_P1;SDS_P2;PMS_P1;PMS_P2;Temp;Humidity;BMP_temperature;BMP_pressure;BME280_temperature;BME280_humidity;BME280_pressure;Samples;Min_cycle;Max_cycle;Signal;HPM_P1;HPM_P2
2022/05/05 00:01:51;;;;;;;9.77;6.50;;;2.00;99.90;;;;;;5015182;28;20108;-69
2022/05/05 00:04:18;;;;;;;10.93;6.50;;;2.00;99.90;;;;;;5014379;28;20113;-68
2022/05/05 00:06:44;;;;;;;10.60;6.28;;;2.00;99.90;;;;;;5014992;28;20545;-69
2022/05/05 00:09:09;;;;;;;15.77;6.70;;;2.00;99.90;;;;;;5014983;28;20117;-69
2022/05/05 00:14:31;;;;;;;14.77;7.13;;;2.00;99.90;;;;;;5014839;28;20452;-69
2022/05/05 00:16:59;;;;;;;8.77;6.00;;;2.00;99.90;;;;;;5015071;28;20018;-69
2022/05/05 00:19:27;;;;;;;12.63;7.32;;;2.00;99.90;;;;;;5014397;28;20481;-69
2022/05/05 00:21:53;;;;;;;17.50;7.13;;;1.90;99.90;;;;;;5014583;28;20026;-69
2022/05/05 00:24:20;;;;;;;19.38;8.57;;;2.00;99.90;;;;;;5014500;28;20075;-69
2022/05/05 00:26:45;;;;;;;16.45;7.78;;;2.00;99.90;;;;;;5014507;28;20026;-69
2022/05/05 00:29:12;;;;;;;11.02;8.43;;;2.00;99.90;;;;;;5014824;28;20040;-69
2022/05/05 00:31:37;;;;;;;15.43;9.23;;;1.90;99.90;;;;;;5013968;28;20028;-69
2022/05/05 00:34:03;;;;;;;16.13;8.43;;;2.00;99.90;;;;;;5014575;28;20393;-69
2022/05/05 00:36:28;;;;;;;21.60;8.98;;;2.00;99.90;;;;;;5014369;28;20029;-69
2022/05/05 00:38:54;;;;;;;13.68;9.05;;;2.00;99.90;;;;;;5013868;28;20038;-69
2022/05/05 00:41:20;;;;;;;19.08;10.27;;;2.00;99.90;;;;;;5014522;28;20028;-69
2022/05/05 00:43:46;;;;;;;16.88;9.38;;;2.00;99.90;;;;;;5012756;28;20022;-69
2022/05/05 00:46:12;;;;;;;20.08;9.98;;;2.10;99.90;;;;;;5014259;28;20520;-69
2022/05/05 00:48:38;;;;;;;16.88;10.38;;;2.00;99.90;;;;;;5013717;28;20026;-69
2022/05/05 00:51:03;;;;;;;17.00;9.30;;;2.10;99.90;;;;;;5014451;28;20026;-69
2022/05/05 00:53:29;;;;;;;11.60;7.80;;;2.10;99.90;;;;;;5014535;28;20100;-69
2022/05/05 00:56:07;;;;;;;19.63;10.40;;;2.20;99.90;;;;;;5014059;28;20471;-69
2022/05/05 00:58:33;;;;;;;14.05;8.88;;;2.20;99.90;;;;;;5013624;28;20116;-68
2022/05/05 01:01:04;;;;;;;18.10;8.65;;;2.20;99.90;;;;;;5014027;28;20501;-69
2022/05/05 01:03:35;;;;;;;15.18;8.68;;;2.20;99.90;;;;;;5013855;28;20065;-69
2022/05/05 01:06:02;;;;;;;12.45;7.70;;;2.20;99.90;;;;;;5014026;28;20022;-69
2022/05/05 01:08:28;;;;;;;12.82;8.45;;;2.20;99.90;;;;;;5013436;28;20474;-69
2022/05/05 01:10:53;;;;;;;12.55;8.90;;;2.20;99.90;;;;;;5014103;28;20037;-69
2022/05/05 01:13:19;;;;;;;17.55;8.25;;;2.30;99.90;;;;;;5013952;28;20116;-69
2022/05/05 01:15:45;;;;;;;19.55;9.15;;;2.20;99.90;;;;;;5013618;28;20029;-69
2022/05/05 01:18:11;;;;;;;10.40;7.97;;;2.30;99.90;;;;;;5014154;28;20053;-69
2022/05/05 01:20:44;;;;;;;11.88;8.38;;;2.20;99.90;;;;;;5012476;28;20062;-69
2022/05/05 01:23:11;;;;;;;12.18;9.73;;;2.30;99.90;;;;;;5013737;28;20152;-69
2022/05/05 01:28:20;;;;;;;;;;;2.20;99.90;;;;;;5015136;28;20044;-69
2022/05/05 01:30:48;;;;;;;14.90;8.00;;;2.20;99.90;;;;;;5015264;28;20361;-69
2022/05/05 01:33:24;;;;;;;24.20;8.45;;;2.20;99.90;;;;;;5013970;28;20025;-69
2022/05/05 01:35:52;;;;;;;16.80;8.52;;;2.20;99.90;;;;;;5013868;28;20113;-69
2022/05/05 01:38:20;;;;;;;11.95;8.77;;;2.10;99.90;;;;;;5013566;28;20437;-69
2022/05/05 01:40:46;;;;;;;11.80;8.15;;;2.10;99.90;;;;;;5013592;28;20018;-69
2022/05/05 01:43:13;;;;;;;17.08;10.23;;;2.10;99.90;;;;;;5012844;28;20436;-69
2022/05/05 01:45:39;;;;;;;14.02;9.82;;;2.10;99.90;;;;;;5013865;28;20038;-69
2022/05/05 01:48:05;;;;;;;14.75;8.85;;;2.10;99.90;;;;;;5013711;28;20034;-69
2022/05/05 01:50:31;;;;;;;19.20;9.88;;;2.10;99.90;;;;;;5013598;28;20030;-69
2022/05/05 01:52:58;;;;;;;12.68;9.00;;;2.10;99.90;;;;;;5013701;28;20022;-69
2022/05/05 01:55:24;;;;;;;18.33;9.50;;;2.10;99.90;;;;;;5013031;28;20022;-69
2022/05/05 01:57:50;;;;;;;14.60;8.85;;;2.10;99.90;;;;;;5012169;28;20021;-69
2022/05/05 02:00:17;;;;;;;16.02;8.80;;;2.00;99.90;;;;;;5013405;28;20034;-69
2022/05/05 02:02:46;;;;;;;11.00;8.68;;;2.00;99.90;;;;;;5013375;28;20026;-69
2022/05/05 02:05:13;;;;;;;11.75;8.50;;;2.00;99.90;;;;;;5014897;28;20034;-69
2022/05/05 02:07:39;;;;;;;14.70;9.50;;;1.90;99.90;;;;;;5016710;28;20026;-69
2022/05/05 02:10:06;;;;;;;18.70;9.10;;;1.90;99.90;;;;;;5017205;28;20022;-69
2022/05/05 02:12:35;;;;;;;18.63;10.40;;;1.90;99.90;;;;;;5016937;28;20018;-69
2022/05/05 02:15:00;;;;;;;13.90;10.60;;;1.90;99.90;;;;;;5016914;28;20018;-69
2022/05/05 02:17:26;;;;;;;15.43;9.82;;;1.90;99.90;;;;;;5016902;28;20161;-69
2022/05/05 02:19:51;;;;;;;16.48;9.48;;;1.90;99.90;;;;;;5016482;28;20022;-69
2022/05/05 02:22:17;;;;;;;14.52;10.07;;;1.90;99.90;;;;;;5016826;28;20026;-69
2022/05/05 02:24:43;;;;;;;14.75;9.02;;;1.90;99.90;;;;;;5016711;28;20049;-69
2022/05/05 02:27:08;;;;;;;13.77;9.93;;;1.90;99.90;;;;;;5017159;28;20030;-69
2022/05/05 02:29:34;;;;;;;14.13;8.85;;;1.80;99.90;;;;;;5016318;28;20382;-69
2022/05/05 02:32:00;;;;;;;17.05;9.98;;;1.80;99.90;;;;;;5016793;28;20088;-69
2022/05/05 02:34:25;;;;;;;16.27;9.10;;;1.80;99.90;;;;;;5016567;28;20462;-69
2022/05/05 02:39:35;;;;;;;12.40;9.02;;;1.70;99.90;;;;;;5016557;28;20033;-69
2022/05/05 02:42:01;;;;;;;15.70;8.90;;;1.70;99.90;;;;;;5015861;28;20420;-69
2022/05/05 02:44:26;;;;;;;17.02;9.63;;;1.60;99.90;;;;;;5016191;28;20096;-69
2022/05/05 02:46:52;;;;;;;17.85;10.00;;;1.60;99.90;;;;;;5016362;28;20033;-69
2022/05/05 02:49:18;;;;;;;14.80;9.30;;;1.60;99.90;;;;;;5016232;28;20029;-69
2022/05/05 02:51:45;;;;;;;15.65;10.82;;;1.50;99.90;;;;;;5016356;28;20474;-69
2022/05/05 02:56:54;;;;;;;14.25;9.57;;;1.50;99.90;;;;;;5016245;28;20106;-69
2022/05/05 02:59:20;;;;;;;15.07;9.52;;;1.40;99.90;;;;;;5016127;28;20041;-69
2022/05/05 03:01:46;;;;;;;20.30;10.20;;;1.40;99.90;;;;;;5016468;28;20051;-68
2022/05/05 03:04:12;;;;;;;16.33;10.15;;;1.40;99.90;;;;;;5016210;28;20558;-68
2022/05/05 03:06:37;;;;;;;17.00;10.90;;;1.40;99.90;;;;;;5015758;28;20108;-69
2022/05/05 03:09:03;;;;;;;19.38;9.75;;;1.40;99.90;;;;;;5015875;28;20030;-70
2022/05/05 03:11:28;;;;;;;14.63;9.45;;;1.40;99.90;;;;;;5016229;28;20037;-70
2022/05/05 03:13:54;;;;;;;19.55;9.82;;;1.40;99.90;;;;;;5015870;28;20022;-69
2022/05/05 03:16:19;;;;;;;13.10;9.63;;;1.30;99.90;;;;;;5016119;28;20018;-69
2022/05/05 03:18:45;;;;;;;16.42;10.07;;;1.30;99.90;;;;;;5015499;28;20045;-70
2022/05/05 03:21:11;;;;;;;11.93;9.02;;;1.30;99.90;;;;;;5015988;28;20062;-69
2022/05/05 03:23:36;;;;;;;12.68;9.52;;;1.20;99.90;;;;;;5015693;28;20389;-69
2022/05/05 03:26:02;;;;;;;19.15;8.32;;;1.20;99.90;;;;;;5015138;28;20057;-69
2022/05/05 03:28:27;;;;;;;10.85;8.23;;;1.10;99.90;;;;;;5015703;28;20505;-69
2022/05/05 03:30:53;;;;;;;15.77;8.63;;;1.10;99.90;;;;;;5015612;28;20442;-69
2022/05/05 03:33:18;;;;;;;11.43;9.68;;;1.10;99.90;;;;;;5015520;28;20038;-69
2022/05/05 03:35:44;;;;;;;17.27;9.85;;;1.10;99.90;;;;;;5015118;28;20034;-70
2022/05/05 03:38:09;;;;;;;13.88;10.25;;;1.10;99.90;;;;;;5015496;28;20033;-69
2022/05/05 03:40:35;;;;;;;17.70;10.25;;;1.10;99.90;;;;;;5015372;28;20022;-69
2022/05/05 03:43:01;;;;;;;20.80;10.88;;;1.10;99.90;;;;;;5015288;28;20029;-69
2022/05/05 03:45:26;;;;;;;17.00;10.50;;;1.10;99.90;;;;;;5015154;28;20042;-70
2022/05/05 03:47:52;;;;;;;19.40;10.98;;;1.10;99.90;;;;;;5014881;28;20069;-69
2022/05/05 03:50:18;;;;;;;23.52;11.65;;;1.10;99.90;;;;;;5015398;28;20080;-69
2022/05/05 03:52:43;;;;;;;20.73;10.20;;;1.10;99.90;;;;;;5015137;28;20021;-69
2022/05/05 03:55:09;;;;;;;15.60;11.07;;;1.10;99.90;;;;;;5014942;28;20152;-68
2022/05/05 03:57:34;;;;;;;14.75;10.05;;;1.10;99.90;;;;;;5014848;28;20033;-69
2022/05/05 04:00:00;;;;;;;16.58;10.55;;;1.10;99.90;;;;;;5014902;28;20061;-69
2022/05/05 04:02:26;;;;;;;18.58;10.95;;;1.10;99.90;;;;;;5015106;28;20390;-69
2022/05/05 04:04:51;;;;;;;16.95;10.52;;;1.10;99.90;;;;;;5014786;28;20045;-69
2022/05/05 04:07:17;;;;;;;19.23;11.40;;;1.10;99.90;;;;;;5014428;28;20108;-69
2022/05/05 04:09:42;;;;;;;16.42;10.82;;;1.10;99.90;;;;;;5014894;28;20065;-69
2022/05/05 04:12:08;;;;;;;16.90;11.15;;;1.10;99.90;;;;;;5015023;28;20033;-69
2022/05/05 04:14:34;;;;;;;15.20;10.77;;;1.10;99.90;;;;;;5014738;28;20076;-69
2022/05/05 04:17:00;;;;;;;20.52;10.48;;;1.20;99.90;;;;;;5014198;28;20429;-69
2022/05/05 04:19:26;;;;;;;17.02;11.07;;;1.20;99.90;;;;;;5030262;28;20043;-69
2022/05/05 04:21:52;;;;;;;13.57;10.48;;;1.20;99.90;;;;;;5014845;28;20022;-69
2022/05/05 04:24:17;;;;;;;20.98;10.93;;;1.30;99.90;;;;;;5014605;28;20080;-70
2022/05/05 04:26:44;;;;;;;21.33;11.15;;;1.30;99.90;;;;;;5014333;28;20036;-70
2022/05/05 04:29:10;;;;;;;15.85;9.80;;;1.40;99.90;;;;;;5014001;28;20029;-70
2022/05/05 04:31:36;;;;;;;21.25;10.48;;;1.50;99.90;;;;;;5014980;28;20371;-69
2022/05/05 04:34:03;;;;;;;20.92;12.25;;;1.60;99.90;;;;;;5014352;28;20109;-69
2022/05/05 04:36:34;;;;;;;18.73;11.07;;;1.60;99.90;;;;;;5015308;28;20030;-69
2022/05/05 04:39:01;;;;;;;21.40;12.90;;;1.70;99.90;;;;;;5014241;28;20391;-68
2022/05/05 04:41:26;;;;;;;23.40;13.57;;;1.80;99.90;;;;;;5014438;28;20026;-69
2022/05/05 04:43:52;;;;;;;23.17;12.27;;;1.90;99.90;;;;;;5014217;28;20041;-69
2022/05/05 04:46:18;;;;;;;24.67;13.38;;;2.00;99.90;;;;;;5014513;28;20046;-69
2022/05/05 04:48:44;;;;;;;19.20;12.07;;;2.20;99.90;;;;;;5013687;28;20053;-70
2022/05/05 04:51:09;;;;;;;20.73;12.43;;;2.30;99.90;;;;;;5014343;28;20113;-70
2022/05/05 04:53:35;;;;;;;16.10;13.32;;;2.50;99.90;;;;;;5014138;28;20022;-70
2022/05/05 04:56:01;;;;;;;21.13;12.00;;;2.70;99.90;;;;;;5013718;28;20025;-70
2022/05/05 04:58:26;;;;;;;18.67;11.35;;;3.00;99.90;;;;;;5014374;28;20026;-70
2022/05/05 05:00:53;;;;;;;18.23;12.23;;;3.30;99.90;;;;;;5014095;28;20466;-70
2022/05/05 05:03:37;;;;;;;14.93;11.35;;;3.60;99.90;;;;;;5014106;28;20044;-69
2022/05/05 05:06:03;;;;;;;;;;;4.00;99.90;;;;;;5014352;28;20533;-69
2022/05/05 05:08:29;;;;;;;27.17;12.93;;;4.50;99.90;;;;;;5013423;28;19916;-69
2022/05/05 05:10:55;;;;;;;24.23;12.77;;;4.80;99.90;;;;;;5014044;28;20021;-69
2022/05/05 05:13:21;;;;;;;30.73;14.05;;;5.20;99.90;;;;;;5013734;28;20029;-69
2022/05/05 05:15:46;;;;;;;18.40;12.25;;;5.50;99.90;;;;;;5013894;28;20018;-69
2022/05/05 05:18:12;;;;;;;21.63;12.30;;;5.80;99.90;;;;;;5014162;28;20072;-69
2022/05/05 05:20:37;;;;;;;26.67;11.20;;;6.10;99.90;;;;;;5013779;28;20030;-69
2022/05/05 05:23:03;;;;;;;24.95;11.05;;;6.30;99.90;;;;;;5013295;28;20091;-69
2022/05/05 05:25:29;;;;;;;24.40;11.20;;;6.50;99.90;;;;;;5013673;28;20034;-69
2022/05/05 05:27:54;;;;;;;21.42;11.18;;;6.60;99.90;;;;;;5013767;28;20560;-69
2022/05/05 05:30:20;;;;;;;20.77;10.73;;;6.80;99.90;;;;;;5013189;28;20386;-69
2022/05/05 05:32:45;;;;;;;21.10;10.52;;;7.00;99.90;;;;;;5013725;28;20080;-69
2022/05/05 05:35:11;;;;;;;17.92;10.48;;;7.00;99.90;;;;;;5013607;28;20393;-69
2022/05/05 05:37:36;;;;;;;24.15;10.60;;;7.20;99.90;;;;;;5013556;28;20032;-69
2022/05/05 05:40:02;;;;;;;17.80;9.00;;;7.20;99.90;;;;;;5014356;28;20040;-69
2022/05/05 05:42:28;;;;;;;18.92;9.40;;;7.30;99.90;;;;;;5017513;28;20028;-69
2022/05/05 05:44:53;;;;;;;25.08;9.20;;;7.40;99.90;;;;;;5017963;28;20034;-69
2022/05/05 05:47:19;;;;;;;23.63;8.25;;;7.30;99.90;;;;;;5017487;28;20041;-69
2022/05/05 05:49:44;;;;;;;26.52;8.05;;;7.40;99.90;;;;;;5015684;28;20033;-69
2022/05/05 05:52:10;;;;;;;12.70;7.20;;;7.50;99.90;;;;;;5017435;28;20041;-69
2022/05/05 05:54:35;;;;;;;17.17;7.80;;;7.50;99.90;;;;;;5017541;28;20048;-69
2022/05/05 05:57:01;;;;;;;19.17;9.13;;;7.60;99.90;;;;;;5017296;28;20363;-69
2022/05/05 05:59:26;;;;;;;17.10;8.02;;;7.60;99.90;;;;;;5017417;28;20110;-69
2022/05/05 06:04:36;;;;;;;18.42;8.02;;;7.80;99.90;;;;;;5017190;28;20506;-69
2022/05/05 06:07:01;;;;;;;35.63;10.50;;;7.90;99.90;;;;;;5017395;28;20065;-70
2022/05/05 06:09:27;;;;;;;17.25;7.47;;;8.00;99.90;;;;;;5017124;28;20033;-69
2022/05/05 06:11:52;;;;;;;11.43;6.22;;;8.10;99.90;;;;;;5016520;28;20025;-69
2022/05/05 06:14:18;;;;;;;15.02;7.22;;;8.30;99.90;;;;;;5016950;28;20390;-69
2022/05/05 06:16:44;;;;;;;16.63;6.80;;;8.50;99.90;;;;;;5017119;28;20430;-70
2022/05/05 06:19:09;;;;;;;15.88;6.57;;;8.60;99.90;;;;;;5016962;28;20084;-69
2022/05/05 06:21:35;;;;;;;17.90;6.18;;;8.60;99.90;;;;;;5017482;28;20017;-69
2022/05/05 06:24:00;;;;;;;19.48;7.10;;;8.80;99.90;;;;;;5016468;28;20064;-69
2022/05/05 06:26:27;;;;;;;29.30;6.85;;;8.90;99.90;;;;;;5016775;28;20029;-70
2022/05/05 06:28:54;;;;;;;25.60;6.68;;;9.10;99.90;;;;;;5016696;28;20045;-69
2022/05/05 06:31:19;;;;;;;18.10;6.10;;;9.20;99.90;;;;;;5016578;28;20124;-69
2022/05/05 06:33:45;;;;;;;14.43;6.63;;;9.20;99.90;;;;;;5016638;28;20049;-69
2022/05/05 06:36:11;;;;;;;13.32;5.85;;;9.10;99.90;;;;;;5016142;28;20018;-69
2022/05/05 06:38:37;;;;;;;15.20;5.40;;;9.20;99.90;;;;;;5016853;28;20037;-69
2022/05/05 06:41:03;;;;;;;16.15;4.82;;;9.20;99.90;;;;;;5016757;28;20025;-71
2022/05/05 06:43:29;;;;;;;29.05;5.20;;;9.30;99.90;;;;;;5016921;28;20083;-71
2022/05/05 06:45:55;;;;;;;19.60;6.32;;;9.40;99.90;;;;;;5016165;28;20033;-71
2022/05/05 06:48:21;;;;;;;10.50;4.65;;;9.60;99.90;;;;;;5016443;28;20144;-69
2022/05/05 06:50:47;;;;;;;11.40;4.60;;;9.50;99.90;;;;;;5015896;28;20109;-69
2022/05/05 06:53:12;;;;;;;11.35;4.90;;;9.40;99.90;;;;;;5016453;28;20040;-70
2022/05/05 06:55:38;;;;;;;9.93;4.30;;;9.50;99.90;;;;;;5015784;28;20022;-70
2022/05/05 06:58:03;;;;;;;19.00;4.78;;;9.50;99.90;;;;;;5016424;28;20034;-71
2022/05/05 07:01:51;;;;;;;14.05;5.05;;;9.50;99.90;;;;;;5016226;28;20036;-69
2022/05/05 07:03:15;;;;;;;11.55;5.00;;;9.50;99.90;;;;;;5015539;28;20128;-69
2022/05/05 07:05:41;;;;;;;20.92;4.82;;;9.50;99.90;;;;;;5016349;28;20055;-69
2022/05/05 07:08:06;;;;;;;9.80;4.43;;;9.60;99.90;;;;;;5014774;28;20032;-69
2022/05/05 07:13:17;;;;;;;20.83;4.65;;;9.80;99.90;;;;;;5015504;28;20080;-69
2022/05/05 07:15:43;;;;;;;13.52;4.65;;;10.10;99.90;;;;;;5016153;28;20417;-69
2022/05/05 07:18:09;;;;;;;16.27;4.13;;;10.40;99.90;;;;;;5015872;28;20014;-69
2022/05/05 07:20:34;;;;;;;18.88;5.72;;;10.60;99.90;;;;;;5016140;28;20022;-69
2022/05/05 07:23:00;;;;;;;14.18;3.83;;;11.00;99.90;;;;;;5015860;28;20064;-69
2022/05/05 07:25:26;;;;;;;19.60;4.22;;;11.40;99.90;;;;;;5015443;28;20026;-69
2022/05/05 07:27:52;;;;;;;13.07;3.88;;;11.50;99.90;;;;;;5015628;28;20039;-68
2022/05/05 07:30:17;;;;;;;15.38;4.47;;;11.50;99.90;;;;;;5015569;28;20037;-69
2022/05/05 07:32:43;;;;;;;20.85;4.25;;;11.60;99.90;;;;;;5015898;28;20022;-69
2022/05/05 07:35:11;;;;;;;12.25;4.03;;;11.80;99.90;;;;;;5015354;28;20053;-68
2022/05/05 07:37:37;;;;;;;15.05;4.45;;;11.90;99.90;;;;;;5015763;28;20045;-69
2022/05/05 07:40:04;;;;;;;16.23;4.65;;;12.10;99.90;;;;;;5014977;28;20478;-69
2022/05/05 07:42:30;;;;;;;14.00;4.90;;;12.30;99.90;;;;;;5015412;28;20038;-68
2022/05/05 07:44:56;;;;;;;13.50;4.68;;;12.20;99.90;;;;;;5015325;28;20056;-69
2022/05/05 07:47:22;;;;;;;10.90;3.92;;;12.20;99.90;;;;;;5015406;28;20482;-69
2022/05/05 07:49:47;;;;;;;17.73;4.88;;;12.20;99.90;;;;;;5015329;28;20030;-69
2022/05/05 07:52:13;;;;;;;16.42;4.68;;;12.20;99.90;;;;;;5015476;28;20030;-69
2022/05/05 07:54:39;;;;;;;11.95;3.35;;;12.10;99.90;;;;;;5014807;28;20077;-69
2022/05/05 07:57:08;;;;;;;14.30;3.75;;;12.30;99.90;;;;;;5015025;28;20096;-69
2022/05/05 07:59:34;;;;;;;18.90;4.35;;;12.30;99.90;;;;;;5014991;28;20076;-69
2022/05/05 08:02:00;;;;;;;17.55;4.47;;;12.20;99.90;;;;;;5014923;28;20061;-68
2022/05/05 08:04:26;;;;;;;13.68;3.80;;;12.20;99.90;;;;;;5013907;28;20056;-69
2022/05/05 08:06:52;;;;;;;11.23;4.22;;;12.30;99.90;;;;;;5015180;28;20541;-69
2022/05/05 08:09:18;;;;;;;13.65;4.03;;;12.50;99.90;;;;;;5014934;28;20076;-69
2022/05/05 08:11:44;;;;;;;6.90;3.17;;;12.50;99.90;;;;;;5013695;28;20022;-69
2022/05/05 08:14:10;;;;;;;18.23;4.10;;;12.50;99.90;;;;;;5014436;28;20061;-69
2022/05/05 08:16:36;;;;;;;10.80;3.67;;;12.40;99.90;;;;;;5015289;28;20419;-69
2022/05/05 08:19:02;;;;;;;9.38;3.63;;;12.30;99.90;;;;;;5014940;28;20097;-69
2022/05/05 08:21:27;;;;;;;11.30;3.25;;;12.40;99.90;;;;;;5015260;28;20033;-69
2022/05/05 08:29:21;;;;;;;;;;;12.20;99.90;;;;;;5015129;28;20401;-69
2022/05/05 08:31:46;;;;;;;14.93;4.28;;;12.00;99.90;;;;;;5015025;28;19905;-69
2022/05/05 08:34:12;;;;;;;10.15;3.20;;;12.10;99.90;;;;;;5014678;28;20102;-69
2022/05/05 08:36:38;;;;;;;12.00;3.67;;;12.40;99.90;;;;;;5014405;28;20462;-69
2022/05/05 08:39:03;;;;;;;13.18;3.47;;;12.90;99.90;;;;;;5014140;28;20049;-68
2022/05/05 08:41:31;;;;;;;8.57;3.25;;;12.90;99.90;;;;;;5014425;28;20386;-69
2022/05/05 08:43:57;;;;;;;11.32;3.28;;;13.30;99.90;;;;;;5014113;28;20030;-69
2022/05/05 08:46:26;;;;;;;16.98;3.97;;;13.50;99.90;;;;;;5014310;28;20022;-69
2022/05/05 08:48:59;;;;;;;11.23;3.78;;;13.50;99.90;;;;;;5013825;28;20018;-69
2022/05/05 08:51:27;;;;;;;15.65;4.05;;;13.50;99.90;;;;;;5014654;28;20022;-69
2022/05/05 08:53:53;;;;;;;14.35;2.65;;;13.30;99.90;;;;;;5014088;28;20492;-69
2022/05/05 08:56:19;;;;;;;14.57;3.40;;;13.00;99.90;;;;;;5013705;28;20021;-69
2022/05/05 08:58:45;;;;;;;13.98;2.63;;;12.90;99.90;;;;;;5014236;28;20025;-69
2022/05/05 09:01:10;;;;;;;15.00;3.72;;;12.70;99.90;;;;;;5014091;28;20109;-69
2022/05/05 09:03:37;;;;;;;15.98;3.25;;;12.60;99.90;;;;;;5014179;28;20026;-69
2022/05/05 09:06:04;;;;;;;9.57;3.50;;;12.60;99.90;;;;;;5014275;28;20042;-69
2022/05/05 09:08:32;;;;;;;11.20;3.40;;;12.80;99.90;;;;;;5013790;28;20110;-69
2022/05/05 09:11:03;;;;;;;13.50;3.90;;;12.90;99.90;;;;;;5014112;28;20050;-69
2022/05/05 09:13:32;;;;;;;11.90;3.42;;;13.00;99.90;;;;;;5013820;28;20520;-69
2022/05/05 09:15:58;;;;;;;9.75;2.47;;;12.90;99.90;;;;;;5013535;28;20060;-69
2022/05/05 09:18:29;;;;;;;9.77;2.75;;;12.90;99.90;;;;;;5013950;28;20049;-69
2022/05/05 09:20:56;;;;;;;14.82;3.30;;;13.00;99.90;;;;;;5014078;28;20049;-69
2022/05/05 09:23:36;;;;;;;10.00;3.22;;;12.80;99.90;;;;;;5013989;28;20157;-70
2022/05/05 09:26:10;;;;;;;14.40;3.55;;;12.80;99.90;;;;;;5014098;28;20026;-69
2022/05/05 09:28:36;;;;;;;13.60;4.38;;;12.60;99.90;;;;;;5014032;28;20159;-70
2022/05/05 09:31:09;;;;;;;17.35;4.28;;;12.50;99.90;;;;;;5013156;28;20024;-70
2022/05/05 09:33:38;;;;;;;16.58;5.38;;;12.40;99.90;;;;;;5014089;28;20054;-75
2022/05/05 09:36:15;;;;;;;16.30;5.20;;;12.40;99.90;;;;;;5014162;28;20463;-75
2022/05/05 09:38:50;;;;;;;13.55;4.88;;;12.50;99.90;;;;;;5014096;28;20069;-72
2022/05/05 09:41:17;;;;;;;13.88;5.22;;;12.80;99.90;;;;;;5014267;28;20053;-75
2022/05/05 09:43:42;;;;;;;19.00;4.35;;;13.20;99.90;;;;;;5013886;28;20445;-70
2022/05/05 09:46:23;;;;;;;15.43;5.10;;;13.40;99.90;;;;;;5014474;28;20113;-75
2022/05/05 09:48:49;;;;;;;14.18;5.43;;;13.30;99.90;;;;;;5012065;28;20117;-76
2022/05/05 09:51:16;;;;;;;19.77;5.97;;;13.20;99.90;;;;;;5014309;28;20034;-72
2022/05/05 09:59:19;;;;;;;17.98;4.95;;;13.10;99.90;;;;;;5013751;28;20097;-69
2022/05/05 10:01:50;;;;;;;12.32;5.72;;;13.00;99.90;;;;;;5013646;28;20038;-69
2022/05/05 10:04:18;;;;;;;14.55;5.43;;;13.10;99.90;;;;;;5013773;28;20103;-73
2022/05/05 10:06:45;;;;;;;16.52;4.50;;;13.20;99.90;;;;;;5014093;28;20022;-74
2022/05/05 10:09:16;;;;;;;15.85;4.60;;;13.30;99.90;;;;;;5013750;28;20129;-73
2022/05/05 10:11:42;;;;;;;13.02;6.18;;;13.60;99.90;;;;;;5013578;28;20044;-73
2022/05/05 10:14:10;;;;;;;22.02;7.15;;;13.70;99.90;;;;;;5013923;28;20060;-69
2022/05/05 10:16:37;;;;;;;12.55;4.53;;;13.70;99.90;;;;;;5013405;28;20040;-69
2022/05/05 10:19:04;;;;;;;9.73;4.00;;;13.60;99.90;;;;;;5013630;28;20048;-73
2022/05/05 10:21:41;;;;;;;11.93;5.40;;;13.60;99.90;;;;;;5013202;28;20049;-70
2022/05/05 10:24:19;;;;;;;13.07;4.80;;;13.40;99.90;;;;;;5013808;28;20080;-73
2022/05/05 10:26:52;;;;;;;20.33;5.30;;;13.50;99.90;;;;;;5015491;28;20045;-72
2022/05/05 10:29:39;;;;;;;17.52;4.57;;;13.30;99.90;;;;;;5017461;28;20482;-69
2022/05/05 10:32:25;;;;;;;19.52;7.07;;;13.20;99.90;;;;;;5017705;28;20422;-72
2022/05/05 10:35:07;;;;;;;16.90;5.63;;;13.20;99.90;;;;;;5016653;28;20470;-73
2022/05/05 10:37:36;;;;;;;16.13;5.30;;;13.10;99.90;;;;;;5017185;28;20030;-76
2022/05/05 10:40:06;;;;;;;19.17;6.03;;;13.00;99.90;;;;;;5017366;28;20106;-74
2022/05/05 10:42:45;;;;;;;11.75;4.82;;;13.00;99.90;;;;;;5017458;28;20026;-76
2022/05/05 10:45:18;;;;;;;13.43;4.43;;;13.10;99.90;;;;;;5017259;28;20030;-76
2022/05/05 10:47:50;;;;;;;12.00;5.30;;;13.20;99.90;;;;;;5017534;28;20026;-73
2022/05/05 10:50:36;;;;;;;13.50;4.53;;;13.40;99.90;;;;;;5016475;28;20080;-74
2022/05/05 10:53:03;;;;;;;13.70;5.35;;;13.40;99.90;;;;;;5017284;28;20014;-73
2022/05/05 10:55:44;;;;;;;12.10;5.00;;;13.40;99.90;;;;;;5015846;28;20029;-73
2022/05/05 10:58:10;;;;;;;17.13;4.97;;;13.50;99.90;;;;;;5016556;28;20374;-69
2022/05/05 11:00:45;;;;;;;20.20;5.85;;;13.80;99.90;;;;;;5016539;28;20497;-68
2022/05/05 11:03:15;;;;;;;21.83;5.30;;;13.90;99.90;;;;;;5016610;28;20053;-75
2022/05/05 11:05:42;;;;;;;17.42;5.82;;;14.20;99.90;;;;;;5016701;28;20084;-69
2022/05/05 11:08:10;;;;;;;14.55;5.05;;;14.70;99.90;;;;;;5016676;28;20030;-69
2022/05/05 11:13:43;;;;;;;15.00;5.55;;;15.70;99.90;;;;;;5016095;28;20390;-70
2022/05/05 11:22:06;;;;;;;20.73;5.38;;;16.10;99.90;;;;;;5015772;28;20041;-68
2022/05/05 11:24:32;;;;;;;16.08;5.53;;;15.70;99.90;;;;;;5016111;28;20054;-69
2022/05/05 11:26:58;;;;;;;12.20;5.75;;;15.50;99.90;;;;;;5016109;28;20065;-68
2022/05/05 11:29:31;;;;;;;14.65;5.15;;;15.30;99.90;;;;;;5016129;28;20026;-67
2022/05/05 11:32:02;;;;;;;19.13;5.28;;;15.30;99.90;;;;;;5015734;28;20025;-69
2022/05/05 11:34:34;;;;;;;17.88;5.38;;;15.60;99.90;;;;;;5016092;28;20026;-76
2022/05/05 11:37:01;;;;;;;16.55;4.97;;;15.60;99.90;;;;;;5016370;28;20030;-73
2022/05/05 11:39:28;;;;;;;12.70;5.57;;;15.40;99.90;;;;;;5015393;28;20022;-69
2022/05/05 11:42:03;;;;;;;12.57;5.20;;;15.70;99.90;;;;;;5016115;28;20040;-71
2022/05/05 11:44:29;;;;;;;13.13;4.93;;;15.90;99.90;;;;;;5016079;28;20038;-69
2022/05/05 11:46:59;;;;;;;18.75;7.10;;;16.40;99.90;;;;;;5015323;28;20036;-69
2022/05/05 11:49:32;;;;;;;17.25;7.57;;;16.40;99.90;;;;;;5016176;28;20465;-76
2022/05/05 11:51:59;;;;;;;19.93;7.67;;;16.40;99.90;;;;;;5015828;28;20458;-69
2022/05/05 11:54:30;;;;;;;18.10;6.28;;;16.10;99.90;;;;;;5015708;28;20272;-72
2022/05/05 11:56:56;;;;;;;11.35;7.10;;;16.30;99.90;;;;;;5016004;28;20363;-74
2022/05/05 12:02:11;;;;;;;19.25;6.38;;;17.20;99.90;;;;;;5015198;28;20041;-68
2022/05/05 12:04:42;;;;;;;13.65;6.20;;;16.90;99.90;;;;;;5015801;28;20418;-69
2022/05/05 12:07:10;;;;;;;12.25;6.35;;;17.00;99.90;;;;;;5015421;28;20028;-69
2022/05/05 12:09:36;;;;;;;15.95;6.82;;;17.20;99.90;;;;;;5015323;28;20437;-69
2022/05/05 12:12:29;;;;;;;18.58;7.68;;;17.30;99.90;;;;;;5015351;28;20490;-75
2022/05/05 12:15:00;;;;;;;15.38;7.28;;;17.20;99.90;;;;;;5013193;28;20187;-68
2022/05/05 12:17:33;;;;;;;17.60;7.35;;;18.00;99.90;;;;;;5015246;28;20018;-71
2022/05/05 12:20:03;;;;;;;17.30;7.57;;;18.50;99.90;;;;;;5015816;28;20030;-71
2022/05/05 12:22:30;;;;;;;17.90;8.68;;;18.00;99.90;;;;;;5014995;28;20037;-74
2022/05/05 12:25:12;;;;;;;15.32;7.28;;;17.80;99.90;;;;;;5014824;28;20097;-75
2022/05/05 12:27:37;;;;;;;15.68;6.97;;;17.20;99.90;;;;;;5015255;28;20030;-68
2022/05/05 12:30:04;;;;;;;19.38;8.57;;;16.90;99.90;;;;;;5014760;28;20496;-68
2022/05/05 12:32:31;;;;;;;20.65;8.10;;;16.50;99.90;;;;;;5015164;28;20046;-68
2022/05/05 12:35:11;;;;;;;16.65;9.40;;;16.30;99.90;;;;;;5014390;28;20053;-69
2022/05/05 12:37:37;;;;;;;22.38;9.23;;;16.30;99.90;;;;;;5014697;28;20548;-69
2022/05/05 12:40:05;;;;;;;17.13;8.60;;;16.90;99.90;;;;;;5014853;28;20108;-69
2022/05/05 12:42:43;;;;;;;22.13;8.88;;;17.40;99.90;;;;;;5014567;28;20101;-68
2022/05/05 12:45:14;;;;;;;24.17;8.15;;;18.20;99.90;;;;;;5014470;28;20033;-71
2022/05/05 12:47:41;;;;;;;23.45;9.40;;;18.60;99.90;;;;;;5014651;28;20101;-68
2022/05/05 12:50:43;;;;;;;17.00;8.95;;;18.50;99.90;;;;;;5014464;28;20093;-75
2022/05/05 13:01:22;;;;;;;;;;;18.30;99.90;;;;;;5015127;28;20036;-68
2022/05/05 13:03:48;;;;;;;28.98;11.30;;;19.20;99.90;;;;;;5013806;28;19906;-68
2022/05/05 13:06:14;;;;;;;17.90;9.35;;;19.10;99.90;;;;;;5014487;28;20025;-68
2022/05/05 13:08:40;;;;;;;25.95;10.70;;;19.00;99.90;;;;;;5014551;28;20118;-69
2022/05/05 13:11:06;;;;;;;23.33;10.82;;;18.90;99.90;;;;;;5014104;28;20029;-68
2022/05/05 13:13:31;;;;;;;21.33;10.25;;;18.60;99.90;;;;;;5014161;28;20532;-75
2022/05/05 13:15:57;;;;;;;22.83;10.02;;;18.50;99.90;;;;;;5014279;28;20032;-69
2022/05/05 13:18:23;;;;;;;21.85;10.30;;;18.20;99.90;;;;;;5014245;28;20402;-75
2022/05/05 13:20:48;;;;;;;23.15;10.77;;;18.60;99.90;;;;;;5014523;28;20034;-68
2022/05/05 13:23:14;;;;;;;22.50;11.38;;;18.70;99.90;;;;;;5013334;28;20034;-68
2022/05/05 13:25:39;;;;;;;19.65;10.80;;;18.60;99.90;;;;;;5014124;28;20038;-68
2022/05/05 13:28:05;;;;;;;26.48;11.32;;;18.30;99.90;;;;;;5013894;28;20367;-69
2022/05/05 13:30:30;;;;;;;22.83;11.00;;;17.80;99.90;;;;;;5013697;28;20068;-68